sensor_id;sensor_type;location;lat;lon;timestamp;temperature;humidity
65989;HTU21D;53592;51.402;6.054;2022-10-17T00:00:25;16.32;86.05
65989;HTU21D;53592;51.402;6.054;2022-10-17T00:02:54;16.33;85.93
65989;HTU21D;53592;51.402;6.054;2022-10-17T00:05:19;16.29;86.12
65989;HTU21D;53592;51.402;6.054;2022-10-17T00:07:45;16.32;86.12
65989;HTU21D;53592;51.402;6.054;2022-10-17T00:10:10;16.31;86.22
65989;HTU21D;53592;51.402;6.054;2022-10-17T00:12:36;16.29;86.48
65989;HTU21D;53592;51.402;6.054;2022-10-17T00:15:03;16.28;86.57
65989;HTU21D;53592;51.402;6.054;2022-10-17T00:17:29;16.30;86.60
65989;HTU21D;53592;51.402;6.054;2022-10-17T00:19:57;16.34;86.64
65989;HTU21D;53592;51.402;6.054;2022-10-17T00:22:23;16.33;86.80
65989;HTU21D;53592;51.402;6.054;2022-10-17T00:24:49;16.34;86.70
65989;HTU21D;53592;51.402;6.054;2022-10-17T00:27:14;16.36;86.44
65989;HTU21D;53592;51.402;6.054;2022-10-17T00:29:39;16.37;86.43
65989;HTU21D;53592;51.402;6.054;2022-10-17T00:32:05;16.34;86.50
65989;HTU21D;53592;51.402;6.054;2022-10-17T00:34:30;16.34;86.36
65989;HTU21D;53592;51.402;6.054;2022-10-17T00:36:56;16.34;86.22
65989;HTU21D;53592;51.402;6.054;2022-10-17T00:39:21;16.35;85.99
65989;HTU21D;53592;51.402;6.054;2022-10-17T00:41:47;16.36;85.99
65989;HTU21D;53592;51.402;6.054;2022-10-17T00:46:53;16.36;85.87
65989;HTU21D;53592;51.402;6.054;2022-10-17T00:49:21;16.33;85.99
65989;HTU21D;53592;51.402;6.054;2022-10-17T00:51:57;16.30;86.18
65989;HTU21D;53592;51.402;6.054;2022-10-17T00:54:29;16.30;86.16
65989;HTU21D;53592;51.402;6.054;2022-10-17T00:56:56;16.30;86.09
65989;HTU21D;53592;51.402;6.054;2022-10-17T00:59:24;16.28;86.12
65989;HTU21D;53592;51.402;6.054;2022-10-17T01:01:59;16.29;86.12
65989;HTU21D;53592;51.402;6.054;2022-10-17T01:04:26;16.26;86.19
65989;HTU21D;53592;51.402;6.054;2022-10-17T01:06:52;16.27;86.25
65989;HTU21D;53592;51.402;6.054;2022-10-17T01:09:17;16.28;86.19
65989;HTU21D;53592;51.402;6.054;2022-10-17T01:11:57;16.21;86.48
65989;HTU21D;53592;51.402;6.054;2022-10-17T01:17:09;16.20;86.43
65989;HTU21D;53592;51.402;6.054;2022-10-17T01:23:14;16.21;86.06
65989;HTU21D;53592;51.402;6.054;2022-10-17T01:25:53;16.14;86.38
65989;HTU21D;53592;51.402;6.054;2022-10-17T01:34:38;16.14;86.17
65989;HTU21D;53592;51.402;6.054;2022-10-17T01:37:18;16.15;86.16
65989;HTU21D;53592;51.402;6.054;2022-10-17T01:42:43;16.10;86.27
65989;HTU21D;53592;51.402;6.054;2022-10-17T01:45:30;16.10;86.37
65989;HTU21D;53592;51.402;6.054;2022-10-17T01:48:02;16.07;86.41
65989;HTU21D;53592;51.402;6.054;2022-10-17T01:50:45;16.07;86.37
65989;HTU21D;53592;51.402;6.054;2022-10-17T01:53:53;16.06;86.47
65989;HTU21D;53592;51.402;6.054;2022-10-17T01:56:14;16.06;86.39
65989;HTU21D;53592;51.402;6.054;2022-10-17T01:59:30;16.04;86.48
65989;HTU21D;53592;51.402;6.054;2022-10-17T02:01:37;16.04;86.59
65989;HTU21D;53592;51.402;6.054;2022-10-17T02:04:07;16.04;86.67
65989;HTU21D;53592;51.402;6.054;2022-10-17T02:06:34;16.04;86.70
65989;HTU21D;53592;51.402;6.054;2022-10-17T02:09:01;16.02;86.67
65989;HTU21D;53592;51.402;6.054;2022-10-17T02:11:38;16.02;86.67
65989;HTU21D;53592;51.402;6.054;2022-10-17T02:17:00;16.01;86.55
65989;HTU21D;53592;51.402;6.054;2022-10-17T02:19:33;16.01;86.69
65989;HTU21D;53592;51.402;6.054;2022-10-17T02:24:51;16.00;86.93
65989;HTU21D;53592;51.402;6.054;2022-10-17T02:33:11;15.98;86.70
65989;HTU21D;53592;51.402;6.054;2022-10-17T02:35:45;15.98;86.85
65989;HTU21D;53592;51.402;6.054;2022-10-17T02:38:13;15.99;87.17
65989;HTU21D;53592;51.402;6.054;2022-10-17T02:40:40;15.99;87.08
65989;HTU21D;53592;51.402;6.054;2022-10-17T02:43:07;15.97;86.76
65989;HTU21D;53592;51.402;6.054;2022-10-17T02:45:36;15.97;86.62
65989;HTU21D;53592;51.402;6.054;2022-10-17T02:48:18;15.98;86.79
65989;HTU21D;53592;51.402;6.054;2022-10-17T02:53:35;15.96;86.78
65989;HTU21D;53592;51.402;6.054;2022-10-17T02:56:16;15.96;86.58
65989;HTU21D;53592;51.402;6.054;2022-10-17T02:58:47;15.95;86.58
65989;HTU21D;53592;51.402;6.054;2022-10-17T03:01:16;15.91;86.61
65989;HTU21D;53592;51.402;6.054;2022-10-17T03:03:42;15.92;86.58
65989;HTU21D;53592;51.402;6.054;2022-10-17T03:06:07;15.93;86.83
65989;HTU21D;53592;51.402;6.054;2022-10-17T03:08:33;15.91;86.71
65989;HTU21D;53592;51.402;6.054;2022-10-17T03:10:58;15.90;86.80
65989;HTU21D;53592;51.402;6.054;2022-10-17T03:13:24;15.90;86.84
65989;HTU21D;53592;51.402;6.054;2022-10-17T03:15:49;15.90;86.85
65989;HTU21D;53592;51.402;6.054;2022-10-17T03:18:15;15.89;86.67
65989;HTU21D;53592;51.402;6.054;2022-10-17T03:20:40;15.90;86.77
65989;HTU21D;53592;51.402;6.054;2022-10-17T03:23:06;15.90;86.78
65989;HTU21D;53592;51.402;6.054;2022-10-17T03:25:31;15.91;86.93
65989;HTU21D;53592;51.402;6.054;2022-10-17T03:27:58;15.93;87.23
65989;HTU21D;53592;51.402;6.054;2022-10-17T03:30:24;15.97;87.41
65989;HTU21D;53592;51.402;6.054;2022-10-17T03:32:50;15.95;87.34
65989;HTU21D;53592;51.402;6.054;2022-10-17T03:35:15;15.93;87.09
65989;HTU21D;53592;51.402;6.054;2022-10-17T03:37:41;15.93;86.93
65989;HTU21D;53592;51.402;6.054;2022-10-17T03:40:07;15.91;86.90
65989;HTU21D;53592;51.402;6.054;2022-10-17T03:42:32;15.89;86.89
65989;HTU21D;53592;51.402;6.054;2022-10-17T03:44:58;15.89;86.66
65989;HTU21D;53592;51.402;6.054;2022-10-17T03:47:23;15.89;86.69
65989;HTU21D;53592;51.402;6.054;2022-10-17T03:49:49;15.87;86.55
65989;HTU21D;53592;51.402;6.054;2022-10-17T03:52:14;15.86;86.43
65989;HTU21D;53592;51.402;6.054;2022-10-17T03:54:40;15.86;86.71
65989;HTU21D;53592;51.402;6.054;2022-10-17T03:57:06;15.86;86.64
65989;HTU21D;53592;51.402;6.054;2022-10-17T03:59:31;15.84;86.65
65989;HTU21D;53592;51.402;6.054;2022-10-17T04:01:57;15.84;86.75
65989;HTU21D;53592;51.402;6.054;2022-10-17T04:04:23;15.84;86.81
65989;HTU21D;53592;51.402;6.054;2022-10-17T04:06:48;15.85;86.63
65989;HTU21D;53592;51.402;6.054;2022-10-17T04:09:14;15.82;86.69
65989;HTU21D;53592;51.402;6.054;2022-10-17T04:11:39;15.85;86.86
65989;HTU21D;53592;51.402;6.054;2022-10-17T04:14:05;15.84;86.96
65989;HTU21D;53592;51.402;6.054;2022-10-17T04:16:31;15.85;87.05
65989;HTU21D;53592;51.402;6.054;2022-10-17T04:18:58;15.87;87.26
65989;HTU21D;53592;51.402;6.054;2022-10-17T04:21:25;15.88;87.11
65989;HTU21D;53592;51.402;6.054;2022-10-17T04:23:53;15.89;87.34
65989;HTU21D;53592;51.402;6.054;2022-10-17T04:26:19;15.91;87.33
65989;HTU21D;53592;51.402;6.054;2022-10-17T04:28:44;15.92;87.44
65989;HTU21D;53592;51.402;6.054;2022-10-17T04:31:12;15.97;87.53
65989;HTU21D;53592;51.402;6.054;2022-10-17T04:33:38;15.98;87.72
65989;HTU21D;53592;51.402;6.054;2022-10-17T04:36:08;16.02;87.67
65989;HTU21D;53592;51.402;6.054;2022-10-17T04:38:35;16.04;87.62
65989;HTU21D;53592;51.402;6.054;2022-10-17T04:41:05;16.04;87.61
65989;HTU21D;53592;51.402;6.054;2022-10-17T04:43:32;16.08;87.63
65989;HTU21D;53592;51.402;6.054;2022-10-17T04:45:59;16.06;87.41
65989;HTU21D;53592;51.402;6.054;2022-10-17T04:48:26;16.06;87.45
65989;HTU21D;53592;51.402;6.054;2022-10-17T04:51:03;16.10;87.35
65989;HTU21D;53592;51.402;6.054;2022-10-17T04:53:36;16.13;87.55
65989;HTU21D;53592;51.402;6.054;2022-10-17T04:56:14;16.16;87.48
65989;HTU21D;53592;51.402;6.054;2022-10-17T04:58:41;16.14;87.21
65989;HTU21D;53592;51.402;6.054;2022-10-17T05:01:09;16.15;87.16
65989;HTU21D;53592;51.402;6.054;2022-10-17T05:03:35;16.14;87.14
65989;HTU21D;53592;51.402;6.054;2022-10-17T05:06:06;16.14;87.08
65989;HTU21D;53592;51.402;6.054;2022-10-17T05:08:32;16.17;86.99
65989;HTU21D;53592;51.402;6.054;2022-10-17T05:10:57;16.17;86.89
65989;HTU21D;53592;51.402;6.054;2022-10-17T05:13:23;16.16;86.89
65989;HTU21D;53592;51.402;6.054;2022-10-17T05:15:48;16.13;86.75
65989;HTU21D;53592;51.402;6.054;2022-10-17T05:18:13;16.12;86.80
65989;HTU21D;53592;51.402;6.054;2022-10-17T05:20:39;16.12;86.96
65989;HTU21D;53592;51.402;6.054;2022-10-17T05:23:04;16.13;86.80
65989;HTU21D;53592;51.402;6.054;2022-10-17T05:25:30;16.13;87.06
65989;HTU21D;53592;51.402;6.054;2022-10-17T05:27:56;16.06;86.95
65989;HTU21D;53592;51.402;6.054;2022-10-17T05:30:21;16.05;87.03
65989;HTU21D;53592;51.402;6.054;2022-10-17T05:32:47;16.06;87.04
65989;HTU21D;53592;51.402;6.054;2022-10-17T05:35:12;16.03;86.97
65989;HTU21D;53592;51.402;6.054;2022-10-17T05:37:38;16.04;86.95
65989;HTU21D;53592;51.402;6.054;2022-10-17T05:40:04;16.01;86.86
65989;HTU21D;53592;51.402;6.054;2022-10-17T05:42:29;16.06;86.83
65989;HTU21D;53592;51.402;6.054;2022-10-17T05:44:55;16.08;87.10
65989;HTU21D;53592;51.402;6.054;2022-10-17T05:47:20;16.10;87.09
65989;HTU21D;53592;51.402;6.054;2022-10-17T05:49:46;16.07;87.04
65989;HTU21D;53592;51.402;6.054;2022-10-17T05:52:11;16.06;86.96
65989;HTU21D;53592;51.402;6.054;2022-10-17T05:54:37;16.03;86.89
65989;HTU21D;53592;51.402;6.054;2022-10-17T05:57:02;16.04;87.14
65989;HTU21D;53592;51.402;6.054;2022-10-17T05:59:28;16.03;87.10
65989;HTU21D;53592;51.402;6.054;2022-10-17T06:01:54;16.04;87.09
65989;HTU21D;53592;51.402;6.054;2022-10-17T06:04:20;16.04;87.43
65989;HTU21D;53592;51.402;6.054;2022-10-17T06:06:45;16.08;87.59
65989;HTU21D;53592;51.402;6.054;2022-10-17T06:09:11;16.08;87.45
65989;HTU21D;53592;51.402;6.054;2022-10-17T06:11:37;16.07;87.54
65989;HTU21D;53592;51.402;6.054;2022-10-17T06:14:03;16.12;87.65
65989;HTU21D;53592;51.402;6.054;2022-10-17T06:16:29;16.16;87.73
65989;HTU21D;53592;51.402;6.054;2022-10-17T06:18:54;16.18;87.72
65989;HTU21D;53592;51.402;6.054;2022-10-17T06:21:22;16.22;87.64
65989;HTU21D;53592;51.402;6.054;2022-10-17T06:23:48;16.24;87.33
65989;HTU21D;53592;51.402;6.054;2022-10-17T06:26:14;16.21;87.50
65989;HTU21D;53592;51.402;6.054;2022-10-17T06:28:40;16.27;87.44
65989;HTU21D;53592;51.402;6.054;2022-10-17T06:31:11;16.28;87.51
65989;HTU21D;53592;51.402;6.054;2022-10-17T06:33:37;16.27;87.44
65989;HTU21D;53592;51.402;6.054;2022-10-17T06:36:04;16.29;87.22
65989;HTU21D;53592;51.402;6.054;2022-10-17T06:38:30;16.31;87.25
65989;HTU21D;53592;51.402;6.054;2022-10-17T06:41:13;16.37;87.23
65989;HTU21D;53592;51.402;6.054;2022-10-17T06:43:41;16.39;87.34
65989;HTU21D;53592;51.402;6.054;2022-10-17T06:46:08;16.44;87.27
65989;HTU21D;53592;51.402;6.054;2022-10-17T06:48:34;16.47;87.15
65989;HTU21D;53592;51.402;6.054;2022-10-17T06:51:00;16.49;86.93
65989;HTU21D;53592;51.402;6.054;2022-10-17T06:53:28;16.51;86.90
65989;HTU21D;53592;51.402;6.054;2022-10-17T06:55:54;16.55;86.79
65989;HTU21D;53592;51.402;6.054;2022-10-17T06:58:22;16.58;86.79
65989;HTU21D;53592;51.402;6.054;2022-10-17T07:00:48;16.63;86.64
65989;HTU21D;53592;51.402;6.054;2022-10-17T07:03:13;16.67;86.80
65989;HTU21D;53592;51.402;6.054;2022-10-17T07:05:39;16.75;86.83
65989;HTU21D;53592;51.402;6.054;2022-10-17T07:08:04;16.85;87.04
65989;HTU21D;53592;51.402;6.054;2022-10-17T07:10:30;16.94;86.92
65989;HTU21D;53592;51.402;6.054;2022-10-17T07:12:55;17.02;86.85
65989;HTU21D;53592;51.402;6.054;2022-10-17T07:15:21;17.10;86.98
65989;HTU21D;53592;51.402;6.054;2022-10-17T07:17:49;17.28;86.64
65989;HTU21D;53592;51.402;6.054;2022-10-17T07:20:15;17.36;86.12
65989;HTU21D;53592;51.402;6.054;2022-10-17T07:22:42;17.46;85.58
65989;HTU21D;53592;51.402;6.054;2022-10-17T07:25:08;17.52;85.24
65989;HTU21D;53592;51.402;6.054;2022-10-17T07:27:33;17.58;84.93
65989;HTU21D;53592;51.402;6.054;2022-10-17T07:29:59;17.61;84.71
65989;HTU21D;53592;51.402;6.054;2022-10-17T07:32:24;17.64;84.62
65989;HTU21D;53592;51.402;6.054;2022-10-17T07:34:50;17.65;84.64
65989;HTU21D;53592;51.402;6.054;2022-10-17T07:37:15;17.69;84.83
65989;HTU21D;53592;51.402;6.054;2022-10-17T07:39:41;17.77;84.87
65989;HTU21D;53592;51.402;6.054;2022-10-17T07:42:06;17.82;84.71
65989;HTU21D;53592;51.402;6.054;2022-10-17T07:44:32;17.94;84.41
65989;HTU21D;53592;51.402;6.054;2022-10-17T07:46:57;17.97;84.43
65989;HTU21D;53592;51.402;6.054;2022-10-17T07:49:23;18.06;84.33
65989;HTU21D;53592;51.402;6.054;2022-10-17T07:51:48;18.13;84.15
65989;HTU21D;53592;51.402;6.054;2022-10-17T07:54:14;18.24;83.62
65989;HTU21D;53592;51.402;6.054;2022-10-17T07:56:39;18.35;83.74
65989;HTU21D;53592;51.402;6.054;2022-10-17T07:59:05;18.47;83.55
65989;HTU21D;53592;51.402;6.054;2022-10-17T08:01:30;18.61;83.08
65989;HTU21D;53592;51.402;6.054;2022-10-17T08:03:56;18.74;82.84
65989;HTU21D;53592;51.402;6.054;2022-10-17T08:06:21;18.87;82.29
65989;HTU21D;53592;51.402;6.054;2022-10-17T08:08:47;19.09;81.84
65989;HTU21D;53592;51.402;6.054;2022-10-17T08:11:13;19.23;81.53
65989;HTU21D;53592;51.402;6.054;2022-10-17T08:13:40;19.42;80.85
65989;HTU21D;53592;51.402;6.054;2022-10-17T08:16:08;19.55;80.18
65989;HTU21D;53592;51.402;6.054;2022-10-17T08:18:35;19.65;79.10
65989;HTU21D;53592;51.402;6.054;2022-10-17T08:21:03;19.73;79.09
65989;HTU21D;53592;51.402;6.054;2022-10-17T08:23:31;19.82;79.20
65989;HTU21D;53592;51.402;6.054;2022-10-17T08:26:02;20.04;78.67
65989;HTU21D;53592;51.402;6.054;2022-10-17T08:28:28;20.28;78.17
65989;HTU21D;53592;51.402;6.054;2022-10-17T08:31:10;20.44;77.63
65989;HTU21D;53592;51.402;6.054;2022-10-17T08:33:36;20.55;76.79
65989;HTU21D;53592;51.402;6.054;2022-10-17T08:36:04;20.61;76.14
65989;HTU21D;53592;51.402;6.054;2022-10-17T08:38:31;20.68;75.71
65989;HTU21D;53592;51.402;6.054;2022-10-17T08:41:00;20.69;75.50
65989;HTU21D;53592;51.402;6.054;2022-10-17T08:46:04;20.71;75.38
65989;HTU21D;53592;51.402;6.054;2022-10-17T08:48:40;20.69;75.19
65989;HTU21D;53592;51.402;6.054;2022-10-17T08:51:17;20.64;75.17
65989;HTU21D;53592;51.402;6.054;2022-10-17T08:53:56;20.54;74.89
65989;HTU21D;53592;51.402;6.054;2022-10-17T08:56:41;20.44;75.41
65989;HTU21D;53592;51.402;6.054;2022-10-17T08:59:12;20.36;74.91
65989;HTU21D;53592;51.402;6.054;2022-10-17T09:01:49;20.28;75.12
65989;HTU21D;53592;51.402;6.054;2022-10-17T09:24:42;19.92;76.10
65989;HTU21D;53592;51.402;6.054;2022-10-17T09:27:19;19.94;76.15
65989;HTU21D;53592;51.402;6.054;2022-10-17T09:29:49;19.96;76.15
65989;HTU21D;53592;51.402;6.054;2022-10-17T09:32:22;19.98;76.18
65989;HTU21D;53592;51.402;6.054;2022-10-17T09:34:48;19.95;76.25
65989;HTU21D;53592;51.402;6.054;2022-10-17T09:37:15;19.91;76.26
65989;HTU21D;53592;51.402;6.054;2022-10-17T09:39:42;19.85;76.59
65989;HTU21D;53592;51.402;6.054;2022-10-17T09:42:14;19.79;76.78
65989;HTU21D;53592;51.402;6.054;2022-10-17T09:44:53;19.74;76.82
65989;HTU21D;53592;51.402;6.054;2022-10-17T09:47:33;19.72;77.08
65989;HTU21D;53592;51.402;6.054;2022-10-17T09:50:00;19.71;77.31
65989;HTU21D;53592;51.402;6.054;2022-10-17T09:52:34;19.74;77.50
65989;HTU21D;53592;51.402;6.054;2022-10-17T09:57:53;19.83;76.95
65989;HTU21D;53592;51.402;6.054;2022-10-17T10:00:22;19.88;76.66
65989;HTU21D;53592;51.402;6.054;2022-10-17T10:02:48;19.94;76.18
65989;HTU21D;53592;51.402;6.054;2022-10-17T10:05:18;19.92;76.12
65989;HTU21D;53592;51.402;6.054;2022-10-17T10:08:02;19.89;76.38
65989;HTU21D;53592;51.402;6.054;2022-10-17T10:10:29;19.86;76.73
65989;HTU21D;53592;51.402;6.054;2022-10-17T10:13:16;19.84;76.95
65989;HTU21D;53592;51.402;6.054;2022-10-17T10:15:47;19.81;77.12
65989;HTU21D;53592;51.402;6.054;2022-10-17T10:18:34;19.80;77.23
65989;HTU21D;53592;51.402;6.054;2022-10-17T10:21:06;19.76;77.27
65989;HTU21D;53592;51.402;6.054;2022-10-17T10:23:33;19.75;77.31
65989;HTU21D;53592;51.402;6.054;2022-10-17T10:26:03;19.74;77.56
65989;HTU21D;53592;51.402;6.054;2022-10-17T10:28:33;19.73;77.70
65989;HTU21D;53592;51.402;6.054;2022-10-17T10:31:05;19.72;78.13
65989;HTU21D;53592;51.402;6.054;2022-10-17T10:33:34;19.67;78.83
65989;HTU21D;53592;51.402;6.054;2022-10-17T10:36:04;19.62;79.09
65989;HTU21D;53592;51.402;6.054;2022-10-17T10:38:32;19.55;79.40
65989;HTU21D;53592;51.402;6.054;2022-10-17T10:41:07;19.52;79.60
65989;HTU21D;53592;51.402;6.054;2022-10-17T10:43:46;19.51;79.78
65989;HTU21D;53592;51.402;6.054;2022-10-17T10:46:20;19.50;80.07
65989;HTU21D;53592;51.402;6.054;2022-10-17T10:51:25;19.45;80.72
65989;HTU21D;53592;51.402;6.054;2022-10-17T10:54:18;19.46;80.76
65989;HTU21D;53592;51.402;6.054;2022-10-17T10:56:54;19.50;80.77
65989;HTU21D;53592;51.402;6.054;2022-10-17T11:02:32;19.52;80.91
65989;HTU21D;53592;51.402;6.054;2022-10-17T11:13:38;19.52;81.07
65989;HTU21D;53592;51.402;6.054;2022-10-17T11:16:29;19.53;81.45
65989;HTU21D;53592;51.402;6.054;2022-10-17T11:19:24;19.54;81.59
65989;HTU21D;53592;51.402;6.054;2022-10-17T11:22:15;19.56;81.52
65989;HTU21D;53592;51.402;6.054;2022-10-17T11:24:58;19.55;81.45
65989;HTU21D;53592;51.402;6.054;2022-10-17T11:27:28;19.53;81.48
65989;HTU21D;53592;51.402;6.054;2022-10-17T11:29:54;19.55;81.28
65989;HTU21D;53592;51.402;6.054;2022-10-17T11:32:34;19.50;81.49
65989;HTU21D;53592;51.402;6.054;2022-10-17T11:37:43;19.46;81.75
65989;HTU21D;53592;51.402;6.054;2022-10-17T11:40:24;19.45;81.89
65989;HTU21D;53592;51.402;6.054;2022-10-17T11:42:53;19.46;82.08
65989;HTU21D;53592;51.402;6.054;2022-10-17T11:45:25;19.47;82.13
65989;HTU21D;53592;51.402;6.054;2022-10-17T11:48:02;19.48;82.01
65989;HTU21D;53592;51.402;6.054;2022-10-17T11:50:33;19.48;81.97
65989;HTU21D;53592;51.402;6.054;2022-10-17T11:55:42;19.46;82.10
65989;HTU21D;53592;51.402;6.054;2022-10-17T11:58:30;19.50;82.01
65989;HTU21D;53592;51.402;6.054;2022-10-17T12:01:34;19.48;82.04
65989;HTU21D;53592;51.402;6.054;2022-10-17T12:04:33;19.50;82.04
65989;HTU21D;53592;51.402;6.054;2022-10-17T12:10:20;19.53;82.22
65989;HTU21D;53592;51.402;6.054;2022-10-17T12:12:46;19.56;82.10
65989;HTU21D;53592;51.402;6.054;2022-10-17T12:18:02;19.54;81.89
65989;HTU21D;53592;51.402;6.054;2022-10-17T12:20:36;19.47;82.02
65989;HTU21D;53592;51.402;6.054;2022-10-17T12:23:03;19.46;81.90
65989;HTU21D;53592;51.402;6.054;2022-10-17T12:25:35;19.39;82.20
65989;HTU21D;53592;51.402;6.054;2022-10-17T12:30:35;19.37;82.17
65989;HTU21D;53592;51.402;6.054;2022-10-17T12:33:19;19.33;82.44
65989;HTU21D;53592;51.402;6.054;2022-10-17T12:35:49;19.33;82.62
65989;HTU21D;53592;51.402;6.054;2022-10-17T12:38:25;19.33;82.72
65989;HTU21D;53592;51.402;6.054;2022-10-17T12:40:55;19.35;82.81
65989;HTU21D;53592;51.402;6.054;2022-10-17T12:45:58;19.31;83.11
65989;HTU21D;53592;51.402;6.054;2022-10-17T12:56:37;19.35;83.16
65989;HTU21D;53592;51.402;6.054;2022-10-17T12:59:27;19.35;83.26
65989;HTU21D;53592;51.402;6.054;2022-10-17T13:02:02;19.37;83.36
65989;HTU21D;53592;51.402;6.054;2022-10-17T13:04:29;19.39;83.31
65989;HTU21D;53592;51.402;6.054;2022-10-17T13:06:57;19.41;83.27
65989;HTU21D;53592;51.402;6.054;2022-10-17T13:09:27;19.43;83.26
65989;HTU21D;53592;51.402;6.054;2022-10-17T13:11:55;19.41;83.28
65989;HTU21D;53592;51.402;6.054;2022-10-17T13:14:23;19.42;83.35
65989;HTU21D;53592;51.402;6.054;2022-10-17T13:17:01;19.42;83.45
65989;HTU21D;53592;51.402;6.054;2022-10-17T13:19:40;19.43;83.45
65989;HTU21D;53592;51.402;6.054;2022-10-17T13:22:30;0.00;83.49
65989;HTU21D;53592;51.402;6.054;2022-10-17T13:25:14;19.41;83.54
65989;HTU21D;53592;51.402;6.054;2022-10-17T13:27:40;19.41;83.53
65989;HTU21D;53592;51.402;6.054;2022-10-17T13:30:28;19.38;83.58
65989;HTU21D;53592;51.402;6.054;2022-10-17T13:32:54;19.39;83.65
65989;HTU21D;53592;51.402;6.054;2022-10-17T13:35:30;19.39;84.00
65989;HTU21D;53592;51.402;6.054;2022-10-17T13:37:59;19.42;84.00
65989;HTU21D;53592;51.402;6.054;2022-10-17T13:40:27;19.42;84.05
65989;HTU21D;53592;51.402;6.054;2022-10-17T13:42:56;19.45;83.92
65989;HTU21D;53592;51.402;6.054;2022-10-17T13:45:29;19.45;83.82
65989;HTU21D;53592;51.402;6.054;2022-10-17T13:47:57;19.46;83.75
65989;HTU21D;53592;51.402;6.054;2022-10-17T13:50:37;19.46;83.78
65989;HTU21D;53592;51.402;6.054;2022-10-17T13:53:21;19.46;83.75
65989;HTU21D;53592;51.402;6.054;2022-10-17T13:58:23;19.47;83.71
65989;HTU21D;53592;51.402;6.054;2022-10-17T14:00:50;19.48;83.84
65989;HTU21D;53592;51.402;6.054;2022-10-17T14:03:21;19.48;83.84
65989;HTU21D;53592;51.402;6.054;2022-10-17T14:06:10;19.46;83.87
65989;HTU21D;53592;51.402;6.054;2022-10-17T14:08:38;19.44;83.91
65989;HTU21D;53592;51.402;6.054;2022-10-17T14:13:49;19.40;84.10
65989;HTU21D;53592;51.402;6.054;2022-10-17T14:16:16;19.39;84.28
65989;HTU21D;53592;51.402;6.054;2022-10-17T14:18:47;19.37;84.36
65989;HTU21D;53592;51.402;6.054;2022-10-17T14:21:24;19.32;84.50
65989;HTU21D;53592;51.402;6.054;2022-10-17T14:26:55;19.31;84.59
65989;HTU21D;53592;51.402;6.054;2022-10-17T14:29:28;19.32;84.64
65989;HTU21D;53592;51.402;6.054;2022-10-17T14:32:04;19.32;84.59
65989;HTU21D;53592;51.402;6.054;2022-10-17T14:34:38;19.30;84.69
65989;HTU21D;53592;51.402;6.054;2022-10-17T14:37:38;19.32;84.75
65989;HTU21D;53592;51.402;6.054;2022-10-17T14:40:06;19.32;85.06
65989;HTU21D;53592;51.402;6.054;2022-10-17T14:42:38;19.35;85.12
65989;HTU21D;53592;51.402;6.054;2022-10-17T14:45:08;19.37;85.14
65989;HTU21D;53592;51.402;6.054;2022-10-17T14:47:36;19.41;85.13
65989;HTU21D;53592;51.402;6.054;2022-10-17T14:50:23;19.42;85.16
65989;HTU21D;53592;51.402;6.054;2022-10-17T14:53:01;19.44;85.03
65989;HTU21D;53592;51.402;6.054;2022-10-17T14:55:29;19.44;84.84
65989;HTU21D;53592;51.402;6.054;2022-10-17T14:57:54;19.40;84.84
65989;HTU21D;53592;51.402;6.054;2022-10-17T15:00:22;19.40;84.76
65989;HTU21D;53592;51.402;6.054;2022-10-17T15:02:49;19.36;84.85
65989;HTU21D;53592;51.402;6.054;2022-10-17T15:05:15;19.35;84.79
65989;HTU21D;53592;51.402;6.054;2022-10-17T15:07:42;19.33;84.81
65989;HTU21D;53592;51.402;6.054;2022-10-17T15:10:35;19.30;84.89
65989;HTU21D;53592;51.402;6.054;2022-10-17T15:13:01;19.28;84.81
65989;HTU21D;53592;51.402;6.054;2022-10-17T15:15:28;19.27;84.92
65989;HTU21D;53592;51.402;6.054;2022-10-17T15:17:54;19.26;84.90
65989;HTU21D;53592;51.402;6.054;2022-10-17T15:20:20;19.24;84.85
65989;HTU21D;53592;51.402;6.054;2022-10-17T15:22:52;19.24;84.82
65989;HTU21D;53592;51.402;6.054;2022-10-17T15:25:18;19.18;84.95
65989;HTU21D;53592;51.402;6.054;2022-10-17T15:27:43;19.17;84.95
65989;HTU21D;53592;51.402;6.054;2022-10-17T15:32:52;19.02;85.47
65989;HTU21D;53592;51.402;6.054;2022-10-17T15:35:19;19.01;85.66
65989;HTU21D;53592;51.402;6.054;2022-10-17T15:37:45;18.96;85.71
65989;HTU21D;53592;51.402;6.054;2022-10-17T15:40:18;18.95;85.80
65989;HTU21D;53592;51.402;6.054;2022-10-17T15:42:44;18.92;85.86
65989;HTU21D;53592;51.402;6.054;2022-10-17T15:45:12;18.89;86.03
65989;HTU21D;53592;51.402;6.054;2022-10-17T15:47:40;18.87;86.02
65989;HTU21D;53592;51.402;6.054;2022-10-17T15:50:12;18.84;86.20
65989;HTU21D;53592;51.402;6.054;2022-10-17T15:52:38;18.85;86.16
65989;HTU21D;53592;51.402;6.054;2022-10-17T15:55:03;18.85;86.09
65989;HTU21D;53592;51.402;6.054;2022-10-17T15:57:33;18.84;85.98
65989;HTU21D;53592;51.402;6.054;2022-10-17T16:00:00;18.85;85.86
65989;HTU21D;53592;51.402;6.054;2022-10-17T16:02:26;18.85;85.88
65989;HTU21D;53592;51.402;6.054;2022-10-17T16:04:51;18.84;85.71
65989;HTU21D;53592;51.402;6.054;2022-10-17T16:07:18;18.85;85.65
65989;HTU21D;53592;51.402;6.054;2022-10-17T16:09:44;18.80;85.71
65989;HTU21D;53592;51.402;6.054;2022-10-17T16:12:15;18.77;85.84
65989;HTU21D;53592;51.402;6.054;2022-10-17T16:14:41;18.78;85.84
65989;HTU21D;53592;51.402;6.054;2022-10-17T16:17:12;18.74;85.93
65989;HTU21D;53592;51.402;6.054;2022-10-17T16:19:38;18.73;85.93
65989;HTU21D;53592;51.402;6.054;2022-10-17T16:22:03;18.69;85.94
65989;HTU21D;53592;51.402;6.054;2022-10-17T16:24:30;18.68;85.93
65989;HTU21D;53592;51.402;6.054;2022-10-17T16:26:56;18.64;86.02
65989;HTU21D;53592;51.402;6.054;2022-10-17T16:29:21;18.62;86.06
65989;HTU21D;53592;51.402;6.054;2022-10-17T16:31:46;18.62;85.99
65989;HTU21D;53592;51.402;6.054;2022-10-17T16:34:13;18.58;86.04
65989;HTU21D;53592;51.402;6.054;2022-10-17T16:36:40;18.58;85.96
65989;HTU21D;53592;51.402;6.054;2022-10-17T16:39:06;18.57;85.93
65989;HTU21D;53592;51.402;6.054;2022-10-17T16:41:37;18.56;85.80
65989;HTU21D;53592;51.402;6.054;2022-10-17T16:44:06;18.53;85.85
65989;HTU21D;53592;51.402;6.054;2022-10-17T16:46:32;18.52;85.75
65989;HTU21D;53592;51.402;6.054;2022-10-17T16:49:00;18.50;85.74
65989;HTU21D;53592;51.402;6.054;2022-10-17T16:51:25;18.52;85.58
65989;HTU21D;53592;51.402;6.054;2022-10-17T16:53:54;18.50;85.61
65989;HTU21D;53592;51.402;6.054;2022-10-17T16:56:22;18.50;85.58
65989;HTU21D;53592;51.402;6.054;2022-10-17T16:58:48;18.51;85.46
65989;HTU21D;53592;51.402;6.054;2022-10-17T17:01:19;18.50;85.29
65989;HTU21D;53592;51.402;6.054;2022-10-17T17:03:47;18.51;85.26
65989;HTU21D;53592;51.402;6.054;2022-10-17T17:06:19;18.47;85.42
65989;HTU21D;53592;51.402;6.054;2022-10-17T17:08:45;18.43;85.49
65989;HTU21D;53592;51.402;6.054;2022-10-17T17:11:14;18.46;85.35
65989;HTU21D;53592;51.402;6.054;2022-10-17T17:13:40;18.44;85.16
65989;HTU21D;53592;51.402;6.054;2022-10-17T17:18:36;18.46;84.97
65989;HTU21D;53592;51.402;6.054;2022-10-17T17:21:03;18.42;84.99